createdAt,value
2022-12-27T00:00:46.484Z,5.50
2022-12-27T00:05:46.814Z,5.40
2022-12-27T00:10:46.238Z,8.90
2022-12-27T00:15:46.192Z,7.80
2022-12-27T00:20:46.130Z,7.10
2022-12-27T00:25:46.096Z,7.70
2022-12-27T00:30:46.003Z,6.00
2022-12-27T00:35:45.992Z,8.30
2022-12-27T00:40:45.889Z,6.30
2022-12-27T00:45:45.866Z,8.80
2022-12-27T00:50:45.832Z,5.80
2022-12-27T00:55:45.686Z,7.70
2022-12-27T01:00:45.749Z,7.80
2022-12-27T01:05:45.691Z,8.40
2022-12-27T01:10:45.479Z,9.70
2022-12-27T01:15:45.442Z,7.40
2022-12-27T01:20:45.407Z,7.80
2022-12-27T01:25:45.328Z,8.30
2022-12-27T01:30:45.214Z,7.40
2022-12-27T01:35:45.213Z,8.70
2022-12-27T01:40:45.141Z,9.20
2022-12-27T01:45:45.003Z,9.90
2022-12-27T01:50:44.998Z,7.20
2022-12-27T01:55:44.901Z,7.40
2022-12-27T02:00:44.839Z,8.60
2022-12-27T02:05:44.755Z,7.30
2022-12-27T02:10:44.773Z,8.10
2022-12-27T02:15:44.746Z,7.90
2022-12-27T02:20:44.595Z,13.00
2022-12-27T02:25:44.489Z,10.60
2022-12-27T02:30:44.460Z,9.00
2022-12-27T02:35:44.405Z,8.30
2022-12-27T02:40:44.315Z,9.20
2022-12-27T02:45:44.223Z,8.40
2022-12-27T02:50:44.217Z,9.50
2022-12-27T02:55:44.136Z,7.20
2022-12-27T03:00:44.065Z,7.80
2022-12-27T03:05:43.944Z,9.20
2022-12-27T03:10:46.565Z,7.20
2022-12-27T03:15:43.828Z,7.10
2022-12-27T03:20:43.799Z,7.10
2022-12-27T03:25:43.672Z,8.40
2022-12-27T03:30:43.699Z,6.30
2022-12-27T03:35:43.588Z,5.70
2022-12-27T03:40:43.488Z,6.40
2022-12-27T03:45:43.406Z,6.70
2022-12-27T03:50:43.385Z,5.10
2022-12-27T03:55:43.261Z,5.40
2022-12-27T04:00:43.235Z,5.50
2022-12-27T04:05:43.167Z,6.40
2022-12-27T04:10:43.079Z,4.90
2022-12-27T04:15:43.061Z,5.20
2022-12-27T04:20:42.964Z,6.50
2022-12-27T04:25:42.854Z,5.60
2022-12-27T04:30:42.824Z,6.30
2022-12-27T04:35:42.778Z,7.90
2022-12-27T04:40:42.696Z,6.80
2022-12-27T04:45:42.602Z,6.80
2022-12-27T04:50:42.612Z,5.50
2022-12-27T04:55:42.472Z,7.30
2022-12-27T05:00:42.431Z,4.50
2022-12-27T05:05:42.400Z,5.30
2022-12-27T05:10:42.289Z,3.70
2022-12-27T05:15:42.339Z,4.30
2022-12-27T05:20:42.212Z,5.20
2022-12-27T05:25:42.106Z,3.90
2022-12-27T05:30:42.031Z,7.10
2022-12-27T05:35:41.967Z,4.70
2022-12-27T05:40:41.951Z,4.00
2022-12-27T05:45:41.886Z,5.50
2022-12-27T05:50:41.757Z,4.70
2022-12-27T05:55:41.756Z,4.20
2022-12-27T06:00:41.625Z,3.40
2022-12-27T06:05:41.632Z,7.30
2022-12-27T06:10:41.497Z,3.90
2022-12-27T06:15:41.454Z,5.20
2022-12-27T06:20:41.393Z,4.30
2022-12-27T06:25:41.293Z,2.80
2022-12-27T06:30:41.239Z,4.90
2022-12-27T06:35:41.189Z,5.10
2022-12-27T06:40:41.126Z,4.80
2022-12-27T06:45:41.119Z,3.80
2022-12-27T06:50:41.325Z,3.00
2022-12-27T06:55:40.924Z,3.00
2022-12-27T07:00:40.825Z,5.20
2022-12-27T07:05:40.777Z,5.40
2022-12-27T07:10:40.724Z,4.00
2022-12-27T07:15:40.686Z,5.70
2022-12-27T07:20:40.599Z,4.00
2022-12-27T07:25:40.511Z,2.90
2022-12-27T07:30:40.451Z,4.90
2022-12-27T07:35:44.913Z,3.50
2022-12-27T07:40:40.336Z,5.40
2022-12-27T07:45:40.271Z,5.00
2022-12-27T07:50:40.221Z,4.90
2022-12-27T07:55:40.160Z,3.30
2022-12-27T08:00:40.064Z,4.50
2022-12-27T08:05:39.997Z,4.90
2022-12-27T08:10:39.942Z,5.50
2022-12-27T08:15:39.901Z,4.80
2022-12-27T08:20:39.803Z,3.60
2022-12-27T08:25:44.780Z,5.70
2022-12-27T08:30:40.652Z,3.90
2022-12-27T08:35:52.594Z,7.20
2022-12-27T08:40:40.939Z,6.20
2022-12-27T08:45:39.461Z,5.20
2022-12-27T08:50:39.390Z,6.00
2022-12-27T08:55:39.341Z,3.90
2022-12-27T09:00:39.268Z,3.50
2022-12-27T09:05:41.892Z,4.00
2022-12-27T09:10:39.119Z,5.30
2022-12-27T09:15:39.097Z,5.40
2022-12-27T09:20:38.995Z,6.00
2022-12-27T09:25:39.033Z,4.90
2022-12-27T09:30:38.858Z,4.60
2022-12-27T09:35:38.850Z,5.60
2022-12-27T09:40:38.768Z,6.30
2022-12-27T09:45:38.658Z,5.60
2022-12-27T09:50:38.615Z,4.80
2022-12-27T09:55:38.544Z,3.60
2022-12-27T10:00:44.196Z,3.10
2022-12-27T10:05:39.433Z,4.20
2022-12-27T10:10:38.335Z,4.10
2022-12-27T10:15:38.379Z,5.60
2022-12-27T10:20:38.236Z,3.50
2022-12-27T10:25:38.149Z,5.20
2022-12-27T10:30:38.111Z,5.80
2022-12-27T10:35:38.015Z,4.50
2022-12-27T10:40:37.934Z,3.90
2022-12-27T10:45:37.879Z,5.30
2022-12-27T10:50:37.793Z,4.20
2022-12-27T10:55:37.763Z,4.10
2022-12-27T11:00:37.693Z,4.40
2022-12-27T11:05:37.589Z,5.00
2022-12-27T11:10:37.554Z,4.90
2022-12-27T11:15:37.488Z,4.50
2022-12-27T11:20:37.385Z,5.00
2022-12-27T11:25:37.334Z,4.60
2022-12-27T11:30:37.305Z,4.40
2022-12-27T11:35:37.190Z,5.60
2022-12-27T11:40:37.117Z,4.80
2022-12-27T11:45:37.094Z,5.50
2022-12-27T11:50:36.971Z,4.60
2022-12-27T11:55:36.934Z,5.70
2022-12-27T12:00:36.901Z,2.50
2022-12-27T12:05:37.237Z,3.20
2022-12-27T12:10:37.095Z,3.70
2022-12-27T12:15:36.708Z,3.30
2022-12-27T12:20:36.620Z,4.70
2022-12-27T12:25:36.579Z,4.20
2022-12-27T12:30:36.476Z,3.20
2022-12-27T12:35:36.408Z,3.60
2022-12-27T12:40:36.338Z,3.40
2022-12-27T12:45:36.364Z,3.80
2022-12-27T12:50:36.237Z,4.00
2022-12-27T12:55:38.627Z,4.40
2022-12-27T13:00:36.063Z,4.50
2022-12-27T13:05:36.050Z,4.50
2022-12-27T13:10:36.012Z,5.70
2022-12-27T13:15:35.914Z,5.00
2022-12-27T13:20:35.937Z,4.30
2022-12-27T13:25:35.811Z,4.80
2022-12-27T13:30:35.900Z,4.10
2022-12-27T13:35:36.542Z,5.40
2022-12-27T13:40:35.582Z,3.80
2022-12-27T13:45:35.568Z,5.80
2022-12-27T13:50:35.464Z,4.20
2022-12-27T13:55:35.392Z,5.50
2022-12-27T14:00:35.311Z,6.00
2022-12-27T14:05:35.274Z,4.30
2022-12-27T14:10:35.461Z,3.60
2022-12-27T14:15:35.176Z,7.40
2022-12-27T14:20:35.059Z,5.00
2022-12-27T14:25:35.023Z,4.20
2022-12-27T14:30:34.881Z,4.20
2022-12-27T14:35:34.832Z,5.10
2022-12-27T14:40:35.188Z,3.40
2022-12-27T14:45:34.701Z,4.70
2022-12-27T14:50:34.634Z,3.00
2022-12-27T14:55:34.614Z,3.30
2022-12-27T15:00:34.542Z,4.70
2022-12-27T15:05:34.938Z,4.50
2022-12-27T15:10:34.395Z,4.30
2022-12-27T15:15:34.380Z,5.80
2022-12-27T15:20:34.226Z,3.60
2022-12-27T15:25:34.166Z,5.80
2022-12-27T15:30:34.076Z,5.10
2022-12-27T15:35:35.429Z,4.80
2022-12-27T15:40:34.034Z,4.30
2022-12-27T15:45:34.871Z,3.90
2022-12-27T15:50:35.003Z,4.40
2022-12-27T15:55:33.816Z,4.60
2022-12-27T16:00:34.711Z,7.80
2022-12-27T16:05:33.655Z,4.50
2022-12-27T16:10:33.588Z,5.70
2022-12-27T16:15:33.517Z,4.90
2022-12-27T16:20:33.469Z,4.40
2022-12-27T16:25:33.392Z,5.30
2022-12-27T16:30:35.201Z,5.30
2022-12-27T16:35:33.796Z,4.30
2022-12-27T16:40:33.285Z,6.20
2022-12-27T16:45:33.137Z,5.30
2022-12-27T16:50:38.903Z,3.80
2022-12-27T16:55:33.967Z,6.60
2022-12-27T17:00:32.957Z,4.20
2022-12-27T17:05:32.840Z,7.80
2022-12-27T17:10:32.768Z,4.50
2022-12-27T17:15:32.801Z,5.20
2022-12-27T17:20:32.657Z,6.90
2022-12-27T17:25:32.577Z,6.00
2022-12-27T17:30:32.571Z,6.30
2022-12-27T17:35:32.630Z,5.20
2022-12-27T17:40:32.376Z,5.90
2022-12-27T17:45:32.472Z,7.00
2022-12-27T17:50:32.265Z,7.20
2022-12-27T17:55:32.240Z,5.60
2022-12-27T18:00:32.154Z,5.00
2022-12-27T18:05:32.071Z,6.60
2022-12-27T18:10:32.063Z,8.20
2022-12-27T18:15:31.937Z,6.10
2022-12-27T18:20:31.894Z,6.60
2022-12-27T18:25:31.810Z,5.90
2022-12-27T18:30:31.966Z,6.50
2022-12-27T18:35:31.695Z,5.60
2022-12-27T18:40:31.593Z,5.80
2022-12-27T18:45:31.625Z,8.10
2022-12-27T18:50:31.732Z,5.90
2022-12-27T18:55:31.449Z,6.70
2022-12-27T19:00:32.376Z,5.40
2022-12-27T19:05:32.086Z,7.00
2022-12-27T19:10:31.336Z,8.10
2022-12-27T19:15:31.269Z,7.40
2022-12-27T19:20:31.085Z,5.50
2022-12-27T19:25:31.024Z,7.60
2022-12-27T19:30:31.772Z,5.20
2022-12-27T19:35:31.348Z,4.70
2022-12-27T19:40:30.834Z,6.00
2022-12-27T19:45:30.840Z,7.40
2022-12-27T19:50:30.684Z,5.90
2022-12-27T19:55:30.582Z,8.40
2022-12-27T20:00:30.534Z,6.60
2022-12-27T20:06:11.484Z,6.60
2022-12-27T20:10:31.471Z,6.00
2022-12-27T20:15:30.353Z,8.90
2022-12-27T20:20:30.316Z,6.60
2022-12-27T20:25:30.227Z,6.70
2022-12-27T20:30:30.176Z,8.50
2022-12-27T20:35:30.373Z,9.40
2022-12-27T20:40:30.003Z,9.80
2022-12-27T20:45:29.974Z,11.30
2022-12-27T20:50:29.869Z,11.10
2022-12-27T20:55:29.829Z,9.70
2022-12-27T21:00:30.066Z,8.70
2022-12-27T21:05:30.271Z,8.40
2022-12-27T21:10:29.693Z,8.10
2022-12-27T21:15:31.221Z,7.60
2022-12-27T21:20:29.575Z,5.90
2022-12-27T21:25:29.460Z,4.80
2022-12-27T21:30:29.485Z,5.20
2022-12-27T21:35:29.290Z,6.20
2022-12-27T21:40:29.325Z,7.30
2022-12-27T21:45:29.274Z,8.20
2022-12-27T21:50:32.506Z,6.50
2022-12-27T21:55:30.040Z,5.30
2022-12-27T22:00:29.125Z,6.10
2022-12-27T22:05:28.946Z,5.40
2022-12-27T22:10:28.928Z,5.70
2022-12-27T22:15:28.856Z,5.30
2022-12-27T22:20:28.734Z,5.50
2022-12-27T22:25:28.646Z,4.70
2022-12-27T22:30:28.611Z,7.90
2022-12-27T22:35:28.593Z,5.70
2022-12-27T22:40:42.053Z,5.90
2022-12-27T22:45:29.402Z,4.60
2022-12-27T22:50:28.337Z,3.90
2022-12-27T22:55:28.338Z,6.00
2022-12-27T23:00:28.212Z,5.10
2022-12-27T23:05:28.118Z,6.40
2022-12-27T23:10:28.085Z,6.30
2022-12-27T23:15:28.061Z,5.90
2022-12-27T23:20:27.956Z,5.30
2022-12-27T23:25:27.950Z,4.30
2022-12-27T23:30:27.803Z,4.50
2022-12-27T23:35:29.624Z,4.30
2022-12-27T23:40:27.746Z,5.10
2022-12-27T23:45:27.643Z,2.90
2022-12-27T23:50:27.532Z,3.90
2022-12-27T23:55:27.518Z,3.00
